sensor_id;sensor_type;location;lat;lon;timestamp;temperature;humidity
48488;DHT22;34289;48.572;13.378;2022-07-17T00:00:45;12.00;99.90
48488;DHT22;34289;48.572;13.378;2022-07-17T00:03:12;12.00;99.90
48488;DHT22;34289;48.572;13.378;2022-07-17T00:05:38;11.90;99.90
48488;DHT22;34289;48.572;13.378;2022-07-17T00:08:05;12.10;99.90
48488;DHT22;34289;48.572;13.378;2022-07-17T00:10:36;11.90;99.90
48488;DHT22;34289;48.572;13.378;2022-07-17T00:13:02;11.90;99.90
48488;DHT22;34289;48.572;13.378;2022-07-17T00:15:28;11.80;99.90
48488;DHT22;34289;48.572;13.378;2022-07-17T00:17:54;12.00;99.90
48488;DHT22;34289;48.572;13.378;2022-07-17T00:20:19;11.70;99.90
48488;DHT22;34289;48.572;13.378;2022-07-17T00:22:45;11.60;99.90
48488;DHT22;34289;48.572;13.378;2022-07-17T00:25:13;11.50;99.90
48488;DHT22;34289;48.572;13.378;2022-07-17T00:27:39;11.50;99.90
48488;DHT22;34289;48.572;13.378;2022-07-17T00:30:05;11.40;99.90
48488;DHT22;34289;48.572;13.378;2022-07-17T00:32:31;11.40;99.90
48488;DHT22;34289;48.572;13.378;2022-07-17T00:34:57;11.40;99.90
48488;DHT22;34289;48.572;13.378;2022-07-17T00:37:22;11.40;99.90
48488;DHT22;34289;48.572;13.378;2022-07-17T00:39:48;11.40;99.90
48488;DHT22;34289;48.572;13.378;2022-07-17T00:42:15;11.80;99.90
48488;DHT22;34289;48.572;13.378;2022-07-17T00:44:41;11.40;99.90
48488;DHT22;34289;48.572;13.378;2022-07-17T00:47:19;11.40;99.90
48488;DHT22;34289;48.572;13.378;2022-07-17T00:49:46;11.30;99.90
48488;DHT22;34289;48.572;13.378;2022-07-17T00:52:13;11.30;99.90
48488;DHT22;34289;48.572;13.378;2022-07-17T00:54:41;11.20;99.90
48488;DHT22;34289;48.572;13.378;2022-07-17T00:57:09;11.20;99.90
48488;DHT22;34289;48.572;13.378;2022-07-17T00:59:36;11.20;99.90
48488;DHT22;34289;48.572;13.378;2022-07-17T01:02:12;11.20;99.90
48488;DHT22;34289;48.572;13.378;2022-07-17T01:04:39;11.20;99.90
48488;DHT22;34289;48.572;13.378;2022-07-17T01:07:06;11.10;99.90
48488;DHT22;34289;48.572;13.378;2022-07-17T01:09:33;11.00;99.90
48488;DHT22;34289;48.572;13.378;2022-07-17T01:11:59;10.90;99.90
48488;DHT22;34289;48.572;13.378;2022-07-17T01:14:26;10.90;99.90
48488;DHT22;34289;48.572;13.378;2022-07-17T01:16:52;10.90;99.90
48488;DHT22;34289;48.572;13.378;2022-07-17T01:19:19;10.90;99.90
48488;DHT22;34289;48.572;13.378;2022-07-17T01:21:47;10.90;99.90
48488;DHT22;34289;48.572;13.378;2022-07-17T01:24:14;10.90;99.90
48488;DHT22;34289;48.572;13.378;2022-07-17T01:26:42;10.90;99.90
48488;DHT22;34289;48.572;13.378;2022-07-17T01:29:09;10.90;99.90
48488;DHT22;34289;48.572;13.378;2022-07-17T01:31:36;10.90;99.90
48488;DHT22;34289;48.572;13.378;2022-07-17T01:34:03;10.90;99.90
48488;DHT22;34289;48.572;13.378;2022-07-17T01:36:30;10.90;99.90
48488;DHT22;34289;48.572;13.378;2022-07-17T01:38:56;10.80;99.90
48488;DHT22;34289;48.572;13.378;2022-07-17T01:41:22;10.70;99.90
48488;DHT22;34289;48.572;13.378;2022-07-17T01:43:48;10.70;99.90
48488;DHT22;34289;48.572;13.378;2022-07-17T01:46:14;10.60;99.90
48488;DHT22;34289;48.572;13.378;2022-07-17T01:48:39;10.60;99.90
48488;DHT22;34289;48.572;13.378;2022-07-17T01:51:05;10.50;99.90
48488;DHT22;34289;48.572;13.378;2022-07-17T01:53:31;10.50;99.90
48488;DHT22;34289;48.572;13.378;2022-07-17T01:55:57;10.50;99.90
48488;DHT22;34289;48.572;13.378;2022-07-17T01:58:22;10.50;99.90
48488;DHT22;34289;48.572;13.378;2022-07-17T02:00:48;10.50;99.90
48488;DHT22;34289;48.572;13.378;2022-07-17T02:03:14;10.50;99.90
48488;DHT22;34289;48.572;13.378;2022-07-17T02:05:40;10.50;99.90
48488;DHT22;34289;48.572;13.378;2022-07-17T02:08:05;10.30;99.90
48488;DHT22;34289;48.572;13.378;2022-07-17T02:10:31;10.30;99.90
48488;DHT22;34289;48.572;13.378;2022-07-17T02:12:57;10.30;99.90
48488;DHT22;34289;48.572;13.378;2022-07-17T02:15:23;10.30;99.90
48488;DHT22;34289;48.572;13.378;2022-07-17T02:17:52;10.40;99.90
48488;DHT22;34289;48.572;13.378;2022-07-17T02:20:18;10.30;99.90
48488;DHT22;34289;48.572;13.378;2022-07-17T02:22:44;10.30;99.90
48488;DHT22;34289;48.572;13.378;2022-07-17T02:25:10;10.30;99.90
48488;DHT22;34289;48.572;13.378;2022-07-17T02:27:37;10.30;99.90
48488;DHT22;34289;48.572;13.378;2022-07-17T02:30:12;10.30;99.90
48488;DHT22;34289;48.572;13.378;2022-07-17T02:32:39;10.20;99.90
48488;DHT22;34289;48.572;13.378;2022-07-17T02:35:06;10.40;99.90
48488;DHT22;34289;48.572;13.378;2022-07-17T02:37:33;10.10;99.90
48488;DHT22;34289;48.572;13.378;2022-07-17T02:39:58;10.10;99.90
48488;DHT22;34289;48.572;13.378;2022-07-17T02:42:26;10.10;99.90
48488;DHT22;34289;48.572;13.378;2022-07-17T02:44:53;10.10;99.90
48488;DHT22;34289;48.572;13.378;2022-07-17T02:47:23;10.00;99.90
48488;DHT22;34289;48.572;13.378;2022-07-17T02:49:50;10.00;99.90
48488;DHT22;34289;48.572;13.378;2022-07-17T02:52:16;10.10;99.90
48488;DHT22;34289;48.572;13.378;2022-07-17T02:54:43;10.00;99.90
48488;DHT22;34289;48.572;13.378;2022-07-17T02:57:08;10.10;99.90
48488;DHT22;34289;48.572;13.378;2022-07-17T02:59:34;9.90;99.90
48488;DHT22;34289;48.572;13.378;2022-07-17T03:02:00;9.90;99.90
48488;DHT22;34289;48.572;13.378;2022-07-17T03:04:26;9.90;99.90
48488;DHT22;34289;48.572;13.378;2022-07-17T03:06:51;9.80;99.90
48488;DHT22;34289;48.572;13.378;2022-07-17T03:09:17;9.80;99.90
48488;DHT22;34289;48.572;13.378;2022-07-17T03:11:43;9.80;99.90
48488;DHT22;34289;48.572;13.378;2022-07-17T03:14:09;9.80;99.90
48488;DHT22;34289;48.572;13.378;2022-07-17T03:16:35;9.80;99.90
48488;DHT22;34289;48.572;13.378;2022-07-17T03:19:00;9.70;99.90
48488;DHT22;34289;48.572;13.378;2022-07-17T03:21:26;9.70;99.90
48488;DHT22;34289;48.572;13.378;2022-07-17T03:23:52;9.70;99.90
48488;DHT22;34289;48.572;13.378;2022-07-17T03:26:17;9.70;99.90
48488;DHT22;34289;48.572;13.378;2022-07-17T03:28:43;9.70;99.90
48488;DHT22;34289;48.572;13.378;2022-07-17T03:31:08;9.70;99.90
48488;DHT22;34289;48.572;13.378;2022-07-17T03:33:34;9.60;99.90
48488;DHT22;34289;48.572;13.378;2022-07-17T03:36:00;10.50;99.90
48488;DHT22;34289;48.572;13.378;2022-07-17T03:38:25;9.70;99.90
48488;DHT22;34289;48.572;13.378;2022-07-17T03:40:51;9.70;99.90
48488;DHT22;34289;48.572;13.378;2022-07-17T03:43:17;10.10;99.90
48488;DHT22;34289;48.572;13.378;2022-07-17T03:45:42;9.80;99.90
48488;DHT22;34289;48.572;13.378;2022-07-17T03:48:08;9.70;99.90
48488;DHT22;34289;48.572;13.378;2022-07-17T03:50:34;9.70;99.90
48488;DHT22;34289;48.572;13.378;2022-07-17T03:52:59;9.70;99.90
48488;DHT22;34289;48.572;13.378;2022-07-17T03:55:25;9.70;99.90
48488;DHT22;34289;48.572;13.378;2022-07-17T03:57:51;10.60;99.90
48488;DHT22;34289;48.572;13.378;2022-07-17T04:00:16;9.80;99.90
48488;DHT22;34289;48.572;13.378;2022-07-17T04:02:42;9.90;99.90
48488;DHT22;34289;48.572;13.378;2022-07-17T04:05:08;9.90;99.90
48488;DHT22;34289;48.572;13.378;2022-07-17T04:07:39;9.80;99.90
48488;DHT22;34289;48.572;13.378;2022-07-17T04:10:11;10.00;99.90
48488;DHT22;34289;48.572;13.378;2022-07-17T04:12:37;9.90;99.90
48488;DHT22;34289;48.572;13.378;2022-07-17T04:15:04;10.00;99.90
48488;DHT22;34289;48.572;13.378;2022-07-17T04:17:30;10.10;99.90
48488;DHT22;34289;48.572;13.378;2022-07-17T04:19:55;10.20;99.90
48488;DHT22;34289;48.572;13.378;2022-07-17T04:22:21;10.30;99.90
48488;DHT22;34289;48.572;13.378;2022-07-17T04:24:47;10.50;99.90
48488;DHT22;34289;48.572;13.378;2022-07-17T04:27:13;10.60;99.90
48488;DHT22;34289;48.572;13.378;2022-07-17T04:29:39;10.70;99.90
48488;DHT22;34289;48.572;13.378;2022-07-17T04:32:05;10.80;99.90
48488;DHT22;34289;48.572;13.378;2022-07-17T04:34:31;10.90;99.90
48488;DHT22;34289;48.572;13.378;2022-07-17T04:37:01;10.90;99.90
48488;DHT22;34289;48.572;13.378;2022-07-17T04:39:27;10.90;99.90
48488;DHT22;34289;48.572;13.378;2022-07-17T04:41:53;10.90;99.90
48488;DHT22;34289;48.572;13.378;2022-07-17T04:44:19;12.00;99.90
48488;DHT22;34289;48.572;13.378;2022-07-17T04:46:45;11.40;99.90
48488;DHT22;34289;48.572;13.378;2022-07-17T04:49:11;11.30;99.90
48488;DHT22;34289;48.572;13.378;2022-07-17T04:51:37;11.50;99.90
48488;DHT22;34289;48.572;13.378;2022-07-17T04:54:03;12.00;99.90
48488;DHT22;34289;48.572;13.378;2022-07-17T04:56:28;11.80;99.90
48488;DHT22;34289;48.572;13.378;2022-07-17T04:58:54;11.90;99.90
48488;DHT22;34289;48.572;13.378;2022-07-17T05:01:20;12.10;99.90
48488;DHT22;34289;48.572;13.378;2022-07-17T05:03:45;12.20;99.90
48488;DHT22;34289;48.572;13.378;2022-07-17T05:06:11;12.30;99.90
48488;DHT22;34289;48.572;13.378;2022-07-17T05:08:37;12.50;99.90
48488;DHT22;34289;48.572;13.378;2022-07-17T05:11:03;12.60;99.90
48488;DHT22;34289;48.572;13.378;2022-07-17T05:13:30;12.70;99.90
48488;DHT22;34289;48.572;13.378;2022-07-17T05:15:55;12.90;99.90
48488;DHT22;34289;48.572;13.378;2022-07-17T05:18:21;13.90;99.90
48488;DHT22;34289;48.572;13.378;2022-07-17T05:20:47;13.30;99.90
48488;DHT22;34289;48.572;13.378;2022-07-17T05:23:13;13.50;99.90
48488;DHT22;34289;48.572;13.378;2022-07-17T05:25:38;13.70;99.90
48488;DHT22;34289;48.572;13.378;2022-07-17T05:28:04;13.80;99.90
48488;DHT22;34289;48.572;13.378;2022-07-17T05:30:30;14.00;99.90
48488;DHT22;34289;48.572;13.378;2022-07-17T05:32:55;14.10;99.90
48488;DHT22;34289;48.572;13.378;2022-07-17T05:35:21;14.30;99.90
48488;DHT22;34289;48.572;13.378;2022-07-17T05:37:47;14.40;99.90
48488;DHT22;34289;48.572;13.378;2022-07-17T05:40:13;14.50;99.90
48488;DHT22;34289;48.572;13.378;2022-07-17T05:42:38;14.70;99.90
48488;DHT22;34289;48.572;13.378;2022-07-17T05:45:04;14.80;99.90
48488;DHT22;34289;48.572;13.378;2022-07-17T05:47:30;14.90;99.90
48488;DHT22;34289;48.572;13.378;2022-07-17T05:49:56;15.00;99.90
48488;DHT22;34289;48.572;13.378;2022-07-17T05:52:25;15.20;99.90
48488;DHT22;34289;48.572;13.378;2022-07-17T05:54:50;15.30;99.90
48488;DHT22;34289;48.572;13.378;2022-07-17T05:57:16;15.40;99.90
48488;DHT22;34289;48.572;13.378;2022-07-17T05:59:42;15.60;99.90
48488;DHT22;34289;48.572;13.378;2022-07-17T06:02:08;15.70;99.90
48488;DHT22;34289;48.572;13.378;2022-07-17T06:04:33;15.80;99.90
48488;DHT22;34289;48.572;13.378;2022-07-17T06:06:59;15.90;99.90
48488;DHT22;34289;48.572;13.378;2022-07-17T06:09:26;16.00;99.90
48488;DHT22;34289;48.572;13.378;2022-07-17T06:11:51;16.20;99.90
48488;DHT22;34289;48.572;13.378;2022-07-17T06:14:20;16.30;99.90
48488;DHT22;34289;48.572;13.378;2022-07-17T06:16:45;16.40;99.90
48488;DHT22;34289;48.572;13.378;2022-07-17T06:19:11;16.50;99.90
48488;DHT22;34289;48.572;13.378;2022-07-17T06:21:37;16.70;99.90
48488;DHT22;34289;48.572;13.378;2022-07-17T06:24:02;16.90;99.90
48488;DHT22;34289;48.572;13.378;2022-07-17T06:26:28;17.00;99.90
48488;DHT22;34289;48.572;13.378;2022-07-17T06:28:54;17.10;99.90
48488;DHT22;34289;48.572;13.378;2022-07-17T06:31:19;17.20;99.90
48488;DHT22;34289;48.572;13.378;2022-07-17T06:33:46;17.40;99.90
48488;DHT22;34289;48.572;13.378;2022-07-17T06:36:12;17.60;99.90
48488;DHT22;34289;48.572;13.378;2022-07-17T06:38:38;17.80;99.90
48488;DHT22;34289;48.572;13.378;2022-07-17T06:41:03;18.00;99.90
48488;DHT22;34289;48.572;13.378;2022-07-17T06:43:29;18.10;99.90
48488;DHT22;34289;48.572;13.378;2022-07-17T06:45:55;18.30;99.90
48488;DHT22;34289;48.572;13.378;2022-07-17T06:48:21;18.50;99.90
48488;DHT22;34289;48.572;13.378;2022-07-17T06:50:47;18.50;99.90
48488;DHT22;34289;48.572;13.378;2022-07-17T06:53:13;18.70;99.90
48488;DHT22;34289;48.572;13.378;2022-07-17T06:55:39;18.90;99.90
48488;DHT22;34289;48.572;13.378;2022-07-17T06:58:05;19.00;99.90
48488;DHT22;34289;48.572;13.378;2022-07-17T07:00:31;19.20;99.90
48488;DHT22;34289;48.572;13.378;2022-07-17T07:02:57;19.20;99.90
48488;DHT22;34289;48.572;13.378;2022-07-17T07:05:23;19.50;99.90
48488;DHT22;34289;48.572;13.378;2022-07-17T07:07:48;19.50;99.90
48488;DHT22;34289;48.572;13.378;2022-07-17T07:10:14;19.60;99.90
48488;DHT22;34289;48.572;13.378;2022-07-17T07:12:40;19.60;99.90
48488;DHT22;34289;48.572;13.378;2022-07-17T07:15:06;19.70;99.90
48488;DHT22;34289;48.572;13.378;2022-07-17T07:17:34;19.90;99.90
48488;DHT22;34289;48.572;13.378;2022-07-17T07:20:03;20.10;99.90
48488;DHT22;34289;48.572;13.378;2022-07-17T07:22:30;20.20;99.90
48488;DHT22;34289;48.572;13.378;2022-07-17T07:24:56;20.20;99.90
48488;DHT22;34289;48.572;13.378;2022-07-17T07:27:21;20.30;99.90
48488;DHT22;34289;48.572;13.378;2022-07-17T07:29:47;20.30;99.90
48488;DHT22;34289;48.572;13.378;2022-07-17T07:32:13;20.50;99.90
48488;DHT22;34289;48.572;13.378;2022-07-17T07:34:39;20.70;99.90
48488;DHT22;34289;48.572;13.378;2022-07-17T07:37:05;20.70;99.90
48488;DHT22;34289;48.572;13.378;2022-07-17T07:39:31;20.70;99.90
48488;DHT22;34289;48.572;13.378;2022-07-17T07:41:57;20.70;99.90
48488;DHT22;34289;48.572;13.378;2022-07-17T07:44:23;20.80;99.90
48488;DHT22;34289;48.572;13.378;2022-07-17T07:46:49;20.80;99.90
48488;DHT22;34289;48.572;13.378;2022-07-17T07:49:14;20.80;99.70
48488;DHT22;34289;48.572;13.378;2022-07-17T07:51:41;20.90;99.90
48488;DHT22;34289;48.572;13.378;2022-07-17T07:54:07;21.20;99.90
48488;DHT22;34289;48.572;13.378;2022-07-17T07:56:32;21.40;99.90
48488;DHT22;34289;48.572;13.378;2022-07-17T07:58:59;21.60;99.90
48488;DHT22;34289;48.572;13.378;2022-07-17T08:01:24;21.50;99.90
48488;DHT22;34289;48.572;13.378;2022-07-17T08:03:50;21.60;99.60
48488;DHT22;34289;48.572;13.378;2022-07-17T08:06:18;21.70;99.90
48488;DHT22;34289;48.572;13.378;2022-07-17T08:08:44;21.90;99.90
48488;DHT22;34289;48.572;13.378;2022-07-17T08:11:10;22.10;99.90
48488;DHT22;34289;48.572;13.378;2022-07-17T08:13:36;22.10;98.30
48488;DHT22;34289;48.572;13.378;2022-07-17T08:16:02;22.10;99.70
48488;DHT22;34289;48.572;13.378;2022-07-17T08:18:27;22.00;99.20
48488;DHT22;34289;48.572;13.378;2022-07-17T08:20:53;22.20;99.00
48488;DHT22;34289;48.572;13.378;2022-07-17T08:23:22;22.30;99.60
48488;DHT22;34289;48.572;13.378;2022-07-17T08:25:47;22.30;98.60
48488;DHT22;34289;48.572;13.378;2022-07-17T08:28:13;22.30;98.10
48488;DHT22;34289;48.572;13.378;2022-07-17T08:30:40;22.10;98.30
48488;DHT22;34289;48.572;13.378;2022-07-17T08:33:07;22.20;99.10
48488;DHT22;34289;48.572;13.378;2022-07-17T08:35:33;22.20;99.50
48488;DHT22;34289;48.572;13.378;2022-07-17T08:37:59;22.50;98.80
48488;DHT22;34289;48.572;13.378;2022-07-17T08:40:35;22.60;98.20
48488;DHT22;34289;48.572;13.378;2022-07-17T08:43:06;22.90;98.50
48488;DHT22;34289;48.572;13.378;2022-07-17T08:45:32;24.30;98.00
48488;DHT22;34289;48.572;13.378;2022-07-17T08:48:01;23.20;97.00
48488;DHT22;34289;48.572;13.378;2022-07-17T08:50:30;23.30;97.80
48488;DHT22;34289;48.572;13.378;2022-07-17T08:52:56;23.60;97.00
48488;DHT22;34289;48.572;13.378;2022-07-17T08:55:22;23.80;97.10
48488;DHT22;34289;48.572;13.378;2022-07-17T08:57:48;23.90;97.10
48488;DHT22;34289;48.572;13.378;2022-07-17T09:00:16;24.00;97.60
48488;DHT22;34289;48.572;13.378;2022-07-17T09:03:04;24.10;96.30
48488;DHT22;34289;48.572;13.378;2022-07-17T09:05:39;24.30;97.00
48488;DHT22;34289;48.572;13.378;2022-07-17T09:08:07;24.40;95.80
48488;DHT22;34289;48.572;13.378;2022-07-17T09:10:43;24.50;96.30
48488;DHT22;34289;48.572;13.378;2022-07-17T09:13:27;24.60;95.60
48488;DHT22;34289;48.572;13.378;2022-07-17T09:15:57;24.60;94.70
48488;DHT22;34289;48.572;13.378;2022-07-17T09:18:23;24.60;95.90
48488;DHT22;34289;48.572;13.378;2022-07-17T09:20:54;24.70;95.70
48488;DHT22;34289;48.572;13.378;2022-07-17T09:23:21;25.00;96.30
48488;DHT22;34289;48.572;13.378;2022-07-17T09:25:49;25.10;95.40
48488;DHT22;34289;48.572;13.378;2022-07-17T09:28:17;24.90;91.80
48488;DHT22;34289;48.572;13.378;2022-07-17T09:30:47;24.80;92.70
48488;DHT22;34289;48.572;13.378;2022-07-17T09:33:21;24.60;91.40
48488;DHT22;34289;48.572;13.378;2022-07-17T09:36:09;24.40;90.90
48488;DHT22;34289;48.572;13.378;2022-07-17T09:38:38;24.60;91.30
48488;DHT22;34289;48.572;13.378;2022-07-17T09:41:09;24.50;89.70
48488;DHT22;34289;48.572;13.378;2022-07-17T09:46:11;24.00;87.40
48488;DHT22;34289;48.572;13.378;2022-07-17T09:48:41;23.80;88.50
48488;DHT22;34289;48.572;13.378;2022-07-17T09:51:08;24.10;91.00
48488;DHT22;34289;48.572;13.378;2022-07-17T09:53:36;24.10;86.60
48488;DHT22;34289;48.572;13.378;2022-07-17T09:56:02;24.10;90.00
48488;DHT22;34289;48.572;13.378;2022-07-17T09:58:30;24.30;90.90
48488;DHT22;34289;48.572;13.378;2022-07-17T10:00:57;24.50;90.10
48488;DHT22;34289;48.572;13.378;2022-07-17T10:03:24;24.60;88.50
48488;DHT22;34289;48.572;13.378;2022-07-17T10:05:51;24.60;84.00
48488;DHT22;34289;48.572;13.378;2022-07-17T10:08:17;24.60;87.10
48488;DHT22;34289;48.572;13.378;2022-07-17T10:10:44;25.00;84.40
48488;DHT22;34289;48.572;13.378;2022-07-17T10:13:10;25.20;83.40
48488;DHT22;34289;48.572;13.378;2022-07-17T10:15:38;25.10;84.90
48488;DHT22;34289;48.572;13.378;2022-07-17T10:18:06;25.30;87.00
48488;DHT22;34289;48.572;13.378;2022-07-17T10:20:33;25.40;86.20
48488;DHT22;34289;48.572;13.378;2022-07-17T10:22:59;25.40;87.00
48488;DHT22;34289;48.572;13.378;2022-07-17T10:25:25;25.60;82.80
48488;DHT22;34289;48.572;13.378;2022-07-17T10:27:55;25.40;87.20
48488;DHT22;34289;48.572;13.378;2022-07-17T10:30:28;25.60;83.20
48488;DHT22;34289;48.572;13.378;2022-07-17T10:32:59;25.70;85.30
48488;DHT22;34289;48.572;13.378;2022-07-17T10:35:27;25.80;85.00
48488;DHT22;34289;48.572;13.378;2022-07-17T10:37:56;26.10;83.60
48488;DHT22;34289;48.572;13.378;2022-07-17T10:40:24;26.30;81.10
48488;DHT22;34289;48.572;13.378;2022-07-17T10:43:04;26.40;75.50
48488;DHT22;34289;48.572;13.378;2022-07-17T10:45:44;26.30;75.30
48488;DHT22;34289;48.572;13.378;2022-07-17T10:48:12;26.30;75.80
48488;DHT22;34289;48.572;13.378;2022-07-17T10:50:44;26.00;74.40
48488;DHT22;34289;48.572;13.378;2022-07-17T10:56:00;25.70;73.80
48488;DHT22;34289;48.572;13.378;2022-07-17T10:58:31;25.90;76.80
48488;DHT22;34289;48.572;13.378;2022-07-17T11:03:30;26.10;76.00
48488;DHT22;34289;48.572;13.378;2022-07-17T11:06:14;26.00;73.60
48488;DHT22;34289;48.572;13.378;2022-07-17T11:08:51;26.00;69.30
48488;DHT22;34289;48.572;13.378;2022-07-17T11:11:20;26.00;70.50
48488;DHT22;34289;48.572;13.378;2022-07-17T11:13:46;26.20;70.60
48488;DHT22;34289;48.572;13.378;2022-07-17T11:16:12;26.30;69.60
48488;DHT22;34289;48.572;13.378;2022-07-17T11:18:46;26.40;69.50
48488;DHT22;34289;48.572;13.378;2022-07-17T11:21:13;26.50;71.50
48488;DHT22;34289;48.572;13.378;2022-07-17T11:23:53;26.50;71.00
48488;DHT22;34289;48.572;13.378;2022-07-17T11:26:19;26.30;74.30
48488;DHT22;34289;48.572;13.378;2022-07-17T11:28:47;26.30;68.90
48488;DHT22;34289;48.572;13.378;2022-07-17T11:33:55;26.90;71.10
48488;DHT22;34289;48.572;13.378;2022-07-17T11:36:33;27.30;65.80
48488;DHT22;34289;48.572;13.378;2022-07-17T11:39:03;27.50;67.20
48488;DHT22;34289;48.572;13.378;2022-07-17T11:44:07;28.00;68.80
48488;DHT22;34289;48.572;13.378;2022-07-17T11:46:35;28.00;66.50
48488;DHT22;34289;48.572;13.378;2022-07-17T11:49:04;27.60;62.10
48488;DHT22;34289;48.572;13.378;2022-07-17T11:51:44;27.30;63.00
48488;DHT22;34289;48.572;13.378;2022-07-17T11:54:14;26.70;63.20
48488;DHT22;34289;48.572;13.378;2022-07-17T11:56:42;26.60;65.40
48488;DHT22;34289;48.572;13.378;2022-07-17T11:59:09;26.90;65.70
48488;DHT22;34289;48.572;13.378;2022-07-17T12:01:43;27.30;66.70
48488;DHT22;34289;48.572;13.378;2022-07-17T12:04:14;27.90;66.70
48488;DHT22;34289;48.572;13.378;2022-07-17T12:06:40;28.30;64.30
48488;DHT22;34289;48.572;13.378;2022-07-17T12:09:07;28.10;65.40
48488;DHT22;34289;48.572;13.378;2022-07-17T12:11:33;27.80;60.80
48488;DHT22;34289;48.572;13.378;2022-07-17T12:14:09;27.70;59.70
48488;DHT22;34289;48.572;13.378;2022-07-17T12:16:36;27.30;62.10
48488;DHT22;34289;48.572;13.378;2022-07-17T12:19:11;27.30;66.30
48488;DHT22;34289;48.572;13.378;2022-07-17T12:21:53;27.40;60.90
48488;DHT22;34289;48.572;13.378;2022-07-17T12:24:26;27.60;65.10
48488;DHT22;34289;48.572;13.378;2022-07-17T12:26:54;27.60;63.10
48488;DHT22;34289;48.572;13.378;2022-07-17T12:29:20;27.80;59.30
48488;DHT22;34289;48.572;13.378;2022-07-17T12:31:46;27.90;61.60
48488;DHT22;34289;48.572;13.378;2022-07-17T12:34:12;28.10;61.40
48488;DHT22;34289;48.572;13.378;2022-07-17T12:36:38;28.30;62.90
48488;DHT22;34289;48.572;13.378;2022-07-17T12:39:03;28.70;63.70
48488;DHT22;34289;48.572;13.378;2022-07-17T12:41:29;29.10;66.30
48488;DHT22;34289;48.572;13.378;2022-07-17T12:43:58;29.80;63.80
48488;DHT22;34289;48.572;13.378;2022-07-17T12:46:26;30.20;60.30
48488;DHT22;34289;48.572;13.378;2022-07-17T12:48:52;30.40;62.60
48488;DHT22;34289;48.572;13.378;2022-07-17T12:51:17;30.80;61.00
48488;DHT22;34289;48.572;13.378;2022-07-17T12:53:44;31.10;61.80
48488;DHT22;34289;48.572;13.378;2022-07-17T12:56:10;31.20;61.80
48488;DHT22;34289;48.572;13.378;2022-07-17T12:58:36;31.10;60.90
48488;DHT22;34289;48.572;13.378;2022-07-17T13:01:03;30.90;59.70
48488;DHT22;34289;48.572;13.378;2022-07-17T13:03:32;31.00;56.50
48488;DHT22;34289;48.572;13.378;2022-07-17T13:05:58;30.20;55.40
48488;DHT22;34289;48.572;13.378;2022-07-17T13:08:30;30.00;58.00
48488;DHT22;34289;48.572;13.378;2022-07-17T13:10:56;30.20;56.30
48488;DHT22;34289;48.572;13.378;2022-07-17T13:13:22;29.60;57.70
48488;DHT22;34289;48.572;13.378;2022-07-17T13:15:48;29.40;58.90
48488;DHT22;34289;48.572;13.378;2022-07-17T13:18:13;29.60;57.70
48488;DHT22;34289;48.572;13.378;2022-07-17T13:20:40;29.90;57.70
48488;DHT22;34289;48.572;13.378;2022-07-17T13:23:06;30.50;56.70
48488;DHT22;34289;48.572;13.378;2022-07-17T13:25:31;30.80;58.20
48488;DHT22;34289;48.572;13.378;2022-07-17T13:27:58;30.90;58.00
48488;DHT22;34289;48.572;13.378;2022-07-17T13:30:23;30.80;57.10
48488;DHT22;34289;48.572;13.378;2022-07-17T13:32:49;30.50;57.20
48488;DHT22;34289;48.572;13.378;2022-07-17T13:35:15;30.20;58.60
48488;DHT22;34289;48.572;13.378;2022-07-17T13:37:43;30.20;57.10
48488;DHT22;34289;48.572;13.378;2022-07-17T13:40:09;30.50;58.10
48488;DHT22;34289;48.572;13.378;2022-07-17T13:42:35;30.60;55.90
48488;DHT22;34289;48.572;13.378;2022-07-17T13:45:01;30.40;56.20
48488;DHT22;34289;48.572;13.378;2022-07-17T13:47:27;30.60;56.40
48488;DHT22;34289;48.572;13.378;2022-07-17T13:49:53;31.00;54.60
48488;DHT22;34289;48.572;13.378;2022-07-17T13:52:18;31.40;56.20
48488;DHT22;34289;48.572;13.378;2022-07-17T13:54:47;32.00;57.20
48488;DHT22;34289;48.572;13.378;2022-07-17T13:57:12;31.80;53.90
48488;DHT22;34289;48.572;13.378;2022-07-17T13:59:38;31.90;56.60
48488;DHT22;34289;48.572;13.378;2022-07-17T14:02:04;32.00;55.40
48488;DHT22;34289;48.572;13.378;2022-07-17T14:04:31;32.50;57.40
48488;DHT22;34289;48.572;13.378;2022-07-17T14:06:57;32.20;51.70
48488;DHT22;34289;48.572;13.378;2022-07-17T14:09:23;32.20;56.30
48488;DHT22;34289;48.572;13.378;2022-07-17T14:11:49;31.90;52.30
48488;DHT22;34289;48.572;13.378;2022-07-17T14:14:14;31.90;51.90
48488;DHT22;34289;48.572;13.378;2022-07-17T14:16:42;32.00;53.90
48488;DHT22;34289;48.572;13.378;2022-07-17T14:19:08;32.70;53.70
48488;DHT22;34289;48.572;13.378;2022-07-17T14:21:37;32.20;53.10
48488;DHT22;34289;48.572;13.378;2022-07-17T14:24:06;32.60;54.90
48488;DHT22;34289;48.572;13.378;2022-07-17T14:26:33;33.40;54.40
48488;DHT22;34289;48.572;13.378;2022-07-17T14:28:59;33.90;55.50
48488;DHT22;34289;48.572;13.378;2022-07-17T14:31:24;34.40;54.90
48488;DHT22;34289;48.572;13.378;2022-07-17T14:33:50;34.50;52.90
48488;DHT22;34289;48.572;13.378;2022-07-17T14:36:16;34.60;54.40
48488;DHT22;34289;48.572;13.378;2022-07-17T14:38:42;34.50;50.20
48488;DHT22;34289;48.572;13.378;2022-07-17T14:41:08;33.50;50.40
48488;DHT22;34289;48.572;13.378;2022-07-17T14:43:33;33.50;53.60
48488;DHT22;34289;48.572;13.378;2022-07-17T14:45:59;34.40;54.50
48488;DHT22;34289;48.572;13.378;2022-07-17T14:48:25;35.50;52.90
48488;DHT22;34289;48.572;13.378;2022-07-17T14:50:50;36.40;52.40
48488;DHT22;34289;48.572;13.378;2022-07-17T14:53:16;37.10;51.20
48488;DHT22;34289;48.572;13.378;2022-07-17T14:55:42;38.10;49.70
48488;DHT22;34289;48.572;13.378;2022-07-17T14:58:07;38.00;48.80
48488;DHT22;34289;48.572;13.378;2022-07-17T15:00:33;37.40;49.60
48488;DHT22;34289;48.572;13.378;2022-07-17T15:02:59;38.50;47.30
48488;DHT22;34289;48.572;13.378;2022-07-17T15:05:25;38.80;46.90
48488;DHT22;34289;48.572;13.378;2022-07-17T15:07:51;40.90;47.20
48488;DHT22;34289;48.572;13.378;2022-07-17T15:10:17;42.20;44.70
48488;DHT22;34289;48.572;13.378;2022-07-17T15:12:42;42.00;44.00
48488;DHT22;34289;48.572;13.378;2022-07-17T15:15:08;42.70;42.70
48488;DHT22;34289;48.572;13.378;2022-07-17T15:17:34;43.80;43.40
48488;DHT22;34289;48.572;13.378;2022-07-17T15:20:00;44.30;42.10
48488;DHT22;34289;48.572;13.378;2022-07-17T15:22:26;45.30;42.40
48488;DHT22;34289;48.572;13.378;2022-07-17T15:24:52;46.10;42.60
48488;DHT22;34289;48.572;13.378;2022-07-17T15:27:17;46.40;40.80
48488;DHT22;34289;48.572;13.378;2022-07-17T15:29:43;46.30;39.10